Lake Valley, New Mexico
Current Conditions -  °F | °C
As of 11:56 AM on Friday 31 Oct 2014 (Local Time) from KGNT Reporting Station
Clear Clear  
Wind Chill: 59°   Ceiling: Unl
Heat Index: 59°   Visibility: 10mi
Dew Point: 25°   Wind: 17mph
Humidity: 27%   Direction: 140°SE
Pressure: 30.36"   Gusts: 29mph
Location:  35.803°N, 107.893°W
Report Text: KGNT 311756Z AUTO 14015G25KT 10SM CLR 15/M04 A3036 RMK AO2
Loading
Personal Weather Stations






























Interactive Weather Map
Tropical Storm Tracking
New forecast layout! Learn more

10-Day Weather Forecast

Advertisements
Track Severe Weather on mobile